Time;durP1;ratioP1;P1;durP2;ratioP2;P2;SDS_P1;SDS_P2;PMS_P1;PMS_P2;Temp;Humidity;BMP_temperature;BMP_pressure;BME280_temperature;BME280_humidity;BME280_pressure;Samples;Min_cycle;Max_cycle;Signal;HPM_P1;HPM_P2
2022/06/09 00:01:03;;;;;;;14.57;6.25;;;;;;;;;;5083048;28;20039;-77
2022/06/09 00:03:38;;;;;;;16.48;6.20;;;;;;;;;;5081441;28;20067;-77
2022/06/09 00:06:06;;;;;;;12.52;5.88;;;;;;;;;;5077715;28;20052;-77
2022/06/09 00:08:32;;;;;;;13.80;6.15;;;;;;;;;;5067048;28;20044;-77
2022/06/09 00:11:01;;;;;;;13.45;5.90;;;;;;;;;;5082937;28;20082;-77
2022/06/09 00:13:27;;;;;;;13.75;6.13;;;;;;;;;;5087677;28;20062;-77
2022/06/09 00:15:54;;;;;;;11.20;5.55;;;;;;;;;;5070070;28;20131;-77
2022/06/09 00:18:21;;;;;;;14.25;5.80;;;;;;;;;;5073796;28;20502;-77
2022/06/09 00:20:47;;;;;;;8.63;5.10;;;;;;;;;;5070668;28;20050;-77
2022/06/09 00:23:16;;;;;;;11.93;5.35;;;;;;;;;;5087924;28;20043;-77
2022/06/09 00:25:42;;;;;;;12.02;5.75;;;;;;;;;;5069228;28;20394;-77
2022/06/09 00:28:08;;;;;;;10.38;5.70;;;;;;;;;;5066674;28;20084;-77
2022/06/09 00:30:35;;;;;;;13.90;6.57;;;;;;;;;;5068178;28;20044;-77
2022/06/09 00:33:01;;;;;;;15.20;6.88;;;;;;;;;;5084781;28;20045;-77
2022/06/09 00:35:27;;;;;;;12.55;5.75;;;;;;;;;;5073351;28;20044;-77
2022/06/09 00:37:53;;;;;;;10.65;5.93;;;;;;;;;;5070362;28;20181;-77
2022/06/09 00:40:19;;;;;;;9.82;5.95;;;;;;;;;;5084498;28;20055;-77
2022/06/09 00:42:45;;;;;;;8.85;4.70;;;;;;;;;;5071527;28;20052;-77
2022/06/09 00:45:42;;;;;;;11.05;4.80;;;;;;;;;;5070195;28;20044;-77
2022/06/09 00:48:08;;;;;;;9.00;4.38;;;;;;;;;;5055516;28;20052;-77
2022/06/09 00:50:36;;;;;;;10.27;4.93;;;;;;;;;;5076369;28;20048;-77
2022/06/09 00:53:05;;;;;;;7.05;4.13;;;;;;;;;;5069118;28;20441;-77
2022/06/09 00:55:32;;;;;;;8.90;3.97;;;;;;;;;;5053291;28;20442;-77
2022/06/09 00:58:02;;;;;;;5.82;4.18;;;;;;;;;;5066577;28;20045;-77
2022/06/09 01:00:30;;;;;;;6.88;4.05;;;;;;;;;;5055088;28;20048;-76
2022/06/09 01:02:57;;;;;;;6.88;3.25;;;;;;;;;;5075798;28;20056;-77
2022/06/09 01:05:24;;;;;;;6.40;3.10;;;;;;;;;;5081929;28;20040;-77
2022/06/09 01:07:52;;;;;;;6.30;3.05;;;;;;;;;;5082624;28;20090;-77
2022/06/09 01:10:18;;;;;;;8.63;3.47;;;;;;;;;;5087754;28;20048;-77
2022/06/09 01:12:45;;;;;;;8.32;3.40;;;;;;;;;;5070243;28;20048;-77
2022/06/09 01:15:22;;;;;;;8.15;3.67;;;;;;;;;;5071305;28;20056;-77
2022/06/09 01:18:02;;;;;;;4.78;3.38;;;;;;;;;;5085912;28;20041;-77
2022/06/09 01:20:47;;;;;;;6.07;3.38;;;;;;;;;;5084091;28;20047;-77
2022/06/09 01:23:31;;;;;;;5.50;3.05;;;;;;;;;;5065361;28;20040;-77
2022/06/09 01:25:57;;;;;;;5.20;3.22;;;;;;;;;;5090273;28;20044;-77
2022/06/09 01:28:49;;;;;;;4.40;2.95;;;;;;;;;;5057455;28;20236;-77
2022/06/09 01:31:36;;;;;;;5.57;3.50;;;;;;;;;;5038713;28;20064;-77
2022/06/09 01:34:08;;;;;;;3.67;3.05;;;;;;;;;;5045226;28;20059;-77
2022/06/09 01:36:35;;;;;;;5.30;3.30;;;;;;;;;;5039888;28;20266;-77
2022/06/09 01:39:03;;;;;;;8.20;3.47;;;;;;;;;;5034814;28;20081;-77
2022/06/09 01:41:29;;;;;;;6.40;3.53;;;;;;;;;;5038315;28;20038;-77
2022/06/09 01:43:56;;;;;;;5.40;3.67;;;;;;;;;;5033610;28;20049;-77
2022/06/09 01:46:28;;;;;;;5.95;3.17;;;;;;;;;;5046739;28;20055;-77
2022/06/09 01:48:57;;;;;;;6.45;3.50;;;;;;;;;;5045317;28;20053;-77
2022/06/09 01:51:23;;;;;;;7.05;3.83;;;;;;;;;;5040917;28;20044;-77
2022/06/09 01:53:55;;;;;;;8.20;4.43;;;;;;;;;;5033148;28;20420;-77
2022/06/09 01:56:27;;;;;;;6.40;3.67;;;;;;;;;;5038698;28;20056;-76
2022/06/09 01:58:55;;;;;;;6.38;4.45;;;;;;;;;;5045661;28;20037;-77
2022/06/09 02:01:23;;;;;;;8.18;4.78;;;;;;;;;;5048128;28;20053;-77
2022/06/09 02:03:51;;;;;;;6.85;4.63;;;;;;;;;;5040109;28;20041;-77
2022/06/09 02:06:17;;;;;;;10.30;4.68;;;;;;;;;;5033406;28;20047;-77
2022/06/09 02:08:44;;;;;;;7.07;4.10;;;;;;;;;;5046092;28;20045;-77
2022/06/09 02:11:12;;;;;;;10.35;4.18;;;;;;;;;;5049847;28;20099;-78
2022/06/09 02:13:40;;;;;;;9.43;4.30;;;;;;;;;;5039282;28;20053;-77
2022/06/09 02:16:08;;;;;;;9.52;4.13;;;;;;;;;;5039070;28;20099;-77
2022/06/09 02:18:38;;;;;;;8.35;4.40;;;;;;;;;;5036999;28;20053;-78
2022/06/09 02:21:10;;;;;;;8.38;4.20;;;;;;;;;;5049026;28;20140;-77
2022/06/09 02:23:36;;;;;;;8.13;4.80;;;;;;;;;;5046210;28;20045;-77
2022/06/09 02:26:03;;;;;;;10.38;4.68;;;;;;;;;;5046515;28;20488;-77
2022/06/09 02:28:29;;;;;;;9.55;4.22;;;;;;;;;;5067201;28;20044;-77
2022/06/09 02:30:55;;;;;;;6.50;4.20;;;;;;;;;;5061049;28;20053;-77
2022/06/09 02:33:21;;;;;;;8.35;4.53;;;;;;;;;;5055452;28;20091;-76
2022/06/09 02:35:51;;;;;;;5.75;4.55;;;;;;;;;;5081217;28;20076;-77
2022/06/09 02:38:17;;;;;;;9.88;5.13;;;;;;;;;;5075987;28;20122;-77
2022/06/09 02:40:43;;;;;;;10.15;5.40;;;;;;;;;;5078492;28;20070;-77
2022/06/09 02:43:09;;;;;;;7.43;5.15;;;;;;;;;;5082758;28;20047;-77
2022/06/09 02:45:35;;;;;;;8.68;5.18;;;;;;;;;;5070923;28;20051;-77
2022/06/09 02:48:02;;;;;;;8.27;5.10;;;;;;;;;;5072650;28;20052;-77
2022/06/09 02:50:28;;;;;;;8.80;5.25;;;;;;;;;;5057353;28;20086;-77
2022/06/09 02:52:54;;;;;;;9.05;5.43;;;;;;;;;;5065604;28;20048;-77
2022/06/09 02:55:20;;;;;;;8.73;6.05;;;;;;;;;;5070864;28;20045;-77
2022/06/09 02:57:46;;;;;;;9.23;5.68;;;;;;;;;;5069090;28;20434;-77
2022/06/09 03:00:14;;;;;;;7.90;5.30;;;;;;;;;;5069333;28;20041;-77
2022/06/09 03:02:41;;;;;;;7.63;5.22;;;;;;;;;;5069830;28;20059;-77
2022/06/09 03:05:07;;;;;;;10.05;5.07;;;;;;;;;;5077249;28;20074;-77
2022/06/09 03:07:34;;;;;;;8.70;4.80;;;;;;;;;;5079035;28;20484;-78
2022/06/09 03:10:00;;;;;;;7.70;5.15;;;;;;;;;;5067400;28;20065;-77
2022/06/09 03:12:26;;;;;;;6.40;4.85;;;;;;;;;;5087913;28;20392;-77
2022/06/09 03:14:53;;;;;;;10.15;5.03;;;;;;;;;;5073077;28;20048;-77
2022/06/09 03:17:19;;;;;;;12.30;5.18;;;;;;;;;;5068906;28;20057;-77
2022/06/09 03:19:45;;;;;;;7.63;4.60;;;;;;;;;;5061967;28;20081;-77
2022/06/09 03:22:11;;;;;;;11.15;5.53;;;;;;;;;;5072425;28;20480;-77
2022/06/09 03:24:37;;;;;;;7.55;5.00;;;;;;;;;;5067436;28;20044;-77
2022/06/09 03:27:03;;;;;;;8.70;5.03;;;;;;;;;;5081969;28;20516;-77
2022/06/09 03:29:30;;;;;;;9.80;5.43;;;;;;;;;;5047888;28;20114;-77
2022/06/09 03:31:56;;;;;;;11.77;5.45;;;;;;;;;;5042615;28;20455;-77
2022/06/09 03:34:22;;;;;;;9.40;5.30;;;;;;;;;;5045337;28;20378;-77
2022/06/09 03:36:48;;;;;;;8.95;5.15;;;;;;;;;;5049666;28;20043;-77
2022/06/09 03:39:14;;;;;;;9.65;5.75;;;;;;;;;;5043696;28;20080;-77
2022/06/09 03:41:40;;;;;;;7.18;5.22;;;;;;;;;;5032864;28;20049;-77
2022/06/09 03:44:07;;;;;;;8.85;6.03;;;;;;;;;;5033281;28;20389;-76
2022/06/09 03:46:33;;;;;;;9.10;5.57;;;;;;;;;;5037326;28;20079;-77
2022/06/09 03:48:59;;;;;;;8.13;5.25;;;;;;;;;;5034500;28;20515;-77
2022/06/09 03:51:26;;;;;;;9.90;5.50;;;;;;;;;;5045595;28;20132;-77
2022/06/09 03:53:52;;;;;;;8.55;5.80;;;;;;;;;;5045762;28;20488;-77
2022/06/09 03:56:19;;;;;;;7.80;5.65;;;;;;;;;;5039225;28;20400;-77
2022/06/09 03:58:45;;;;;;;7.82;5.22;;;;;;;;;;5047453;28;20051;-77
2022/06/09 04:01:13;;;;;;;9.30;6.00;;;;;;;;;;5042324;28;20055;-77
2022/06/09 04:03:42;;;;;;;10.65;5.78;;;;;;;;;;5045519;28;20048;-77
2022/06/09 04:06:17;;;;;;;8.13;6.38;;;;;;;;;;5048748;28;20096;-77
2022/06/09 04:08:43;;;;;;;7.68;6.30;;;;;;;;;;5038117;28;20057;-77
2022/06/09 04:11:09;;;;;;;10.40;6.57;;;;;;;;;;5041511;28;20076;-77
2022/06/09 04:13:35;;;;;;;10.68;6.57;;;;;;;;;;5031836;28;20061;-77
2022/06/09 04:16:03;;;;;;;8.57;6.63;;;;;;;;;;5039855;28;20045;-77
2022/06/09 04:18:29;;;;;;;9.82;6.72;;;;;;;;;;5037401;28;20068;-77
2022/06/09 04:20:55;;;;;;;10.85;6.68;;;;;;;;;;5043663;28;20046;-77
2022/06/09 04:23:21;;;;;;;9.30;6.53;;;;;;;;;;5044155;28;20049;-77
2022/06/09 04:25:47;;;;;;;10.23;7.32;;;;;;;;;;5033944;28;20148;-77
2022/06/09 04:28:13;;;;;;;11.30;7.05;;;;;;;;;;5046709;28;20052;-76
2022/06/09 04:30:39;;;;;;;9.73;6.97;;;;;;;;;;5088807;28;20386;-77
2022/06/09 04:33:05;;;;;;;12.23;7.03;;;;;;;;;;5058884;28;20129;-77
2022/06/09 04:35:31;;;;;;;11.75;7.07;;;;;;;;;;5081965;28;20051;-77
2022/06/09 04:38:00;;;;;;;10.13;6.70;;;;;;;;;;5055105;28;20045;-78
2022/06/09 04:40:27;;;;;;;11.38;7.28;;;;;;;;;;5063923;28;20425;-77
2022/06/09 04:42:53;;;;;;;10.02;6.43;;;;;;;;;;5070229;28;20089;-77
2022/06/09 04:45:19;;;;;;;9.27;6.70;;;;;;;;;;5072991;28;20099;-77
2022/06/09 04:47:45;;;;;;;11.70;6.50;;;;;;;;;;5086963;28;20048;-77
2022/06/09 04:50:12;;;;;;;9.57;6.53;;;;;;;;;;5082286;28;20162;-77
2022/06/09 04:52:38;;;;;;;11.27;6.82;;;;;;;;;;5069001;28;20224;-77
2022/06/09 04:55:05;;;;;;;12.18;6.50;;;;;;;;;;5084554;28;20040;-77
2022/06/09 04:57:31;;;;;;;11.35;6.55;;;;;;;;;;5063302;28;20044;-77
2022/06/09 04:59:57;;;;;;;6.63;5.70;;;;;;;;;;5069898;28;20040;-77
2022/06/09 05:02:23;;;;;;;9.02;6.15;;;;;;;;;;5080400;28;20432;-77
2022/06/09 05:04:49;;;;;;;11.30;6.22;;;;;;;;;;5079685;28;20494;-77
2022/06/09 05:07:15;;;;;;;9.15;6.07;;;;;;;;;;5084818;28;20084;-78
2022/06/09 05:09:41;;;;;;;8.82;5.50;;;;;;;;;;5082197;28;20114;-77
2022/06/09 05:12:08;;;;;;;9.23;5.07;;;;;;;;;;5060483;28;20051;-78
2022/06/09 05:14:34;;;;;;;7.78;4.88;;;;;;;;;;5072082;28;20048;-78
2022/06/09 05:17:00;;;;;;;7.32;4.85;;;;;;;;;;5088416;28;20044;-78
2022/06/09 05:19:26;;;;;;;8.38;4.60;;;;;;;;;;5073188;28;20043;-78
2022/06/09 05:21:52;;;;;;;8.00;4.47;;;;;;;;;;5080284;28;20040;-78
2022/06/09 05:24:19;;;;;;;6.43;4.40;;;;;;;;;;5070312;28;20070;-78
2022/06/09 05:26:45;;;;;;;11.95;5.00;;;;;;;;;;5070591;28;20044;-77
2022/06/09 05:29:11;;;;;;;6.30;3.85;;;;;;;;;;5077168;28;20048;-78
2022/06/09 05:31:37;;;;;;;6.25;3.80;;;;;;;;;;5072802;28;20058;-77
2022/06/09 05:34:03;;;;;;;7.40;4.00;;;;;;;;;;5065953;28;20040;-77
2022/06/09 05:36:30;;;;;;;9.07;4.45;;;;;;;;;;5086165;28;20055;-77
2022/06/09 05:47:10;;;;;;;6.45;3.40;;;;;;;;;;5077796;28;20044;-78
2022/06/09 05:49:36;;;;;;;8.30;3.50;;;;;;;;;;5087635;28;20048;-78
2022/06/09 05:52:02;;;;;;;6.25;3.92;;;;;;;;;;5081837;28;20401;-78
2022/06/09 05:54:28;;;;;;;11.60;4.03;;;;;;;;;;5069515;28;20127;-79
2022/06/09 05:56:54;;;;;;;7.63;3.80;;;;;;;;;;5090019;28;20072;-79
2022/06/09 05:59:20;;;;;;;5.28;3.40;;;;;;;;;;5081301;28;20131;-79
2022/06/09 06:01:46;;;;;;;8.60;3.92;;;;;;;;;;5065579;28;20055;-79
2022/06/09 06:04:12;;;;;;;8.95;3.22;;;;;;;;;;5069370;28;20043;-79
2022/06/09 06:06:38;;;;;;;6.30;3.60;;;;;;;;;;5085121;28;20484;-79
2022/06/09 06:09:08;;;;;;;7.28;3.30;;;;;;;;;;5081790;28;20051;-79
2022/06/09 06:11:36;;;;;;;5.65;3.20;;;;;;;;;;5078054;28;20087;-79
2022/06/09 06:14:02;;;;;;;5.22;2.95;;;;;;;;;;5073302;28;20040;-79
2022/06/09 06:16:28;;;;;;;7.32;2.95;;;;;;;;;;5062584;28;20394;-79
2022/06/09 06:18:54;;;;;;;4.93;2.78;;;;;;;;;;5067678;28;20048;-79
2022/06/09 06:21:20;;;;;;;6.65;2.85;;;;;;;;;;5072902;28;20445;-78
2022/06/09 06:23:47;;;;;;;7.60;2.97;;;;;;;;;;5065156;28;20441;-78
2022/06/09 06:26:13;;;;;;;4.85;2.40;;;;;;;;;;5063794;28;20040;-78
2022/06/09 06:28:40;;;;;;;6.57;2.80;;;;;;;;;;5081292;28;20109;-78
2022/06/09 06:31:06;;;;;;;8.23;2.92;;;;;;;;;;5074755;28;20448;-78
2022/06/09 06:33:32;;;;;;;7.60;2.65;;;;;;;;;;5059520;28;20535;-77
2022/06/09 06:35:58;;;;;;;6.85;2.85;;;;;;;;;;5082520;28;20078;-79
2022/06/09 06:38:24;;;;;;;6.13;2.47;;;;;;;;;;5082759;28;20040;-79
2022/06/09 06:40:50;;;;;;;7.53;3.00;;;;;;;;;;5078311;28;20505;-78
2022/06/09 06:43:16;;;;;;;4.72;2.58;;;;;;;;;;5066152;28;20048;-79
2022/06/09 06:45:43;;;;;;;7.28;2.97;;;;;;;;;;5074322;28;20071;-78
2022/06/09 06:48:10;;;;;;;5.45;2.40;;;;;;;;;;5057306;28;20465;-78
2022/06/09 06:50:36;;;;;;;8.43;2.63;;;;;;;;;;5092806;28;20044;-78
2022/06/09 06:53:02;;;;;;;6.45;2.53;;;;;;;;;;5066810;28;20093;-78
2022/06/09 06:55:29;;;;;;;9.32;3.47;;;;;;;;;;5064770;28;20036;-78
2022/06/09 06:57:55;;;;;;;8.93;2.70;;;;;;;;;;5067485;28;20048;-78
2022/06/09 07:00:22;;;;;;;8.02;2.97;;;;;;;;;;5078361;28;20348;-78
2022/06/09 07:02:49;;;;;;;8.73;2.95;;;;;;;;;;5093774;28;20051;-77
2022/06/09 07:05:15;;;;;;;7.25;2.67;;;;;;;;;;5071131;28;20044;-78
2022/06/09 07:07:41;;;;;;;8.75;2.70;;;;;;;;;;5085312;28;20036;-77
2022/06/09 07:10:08;;;;;;;12.45;2.90;;;;;;;;;;5093840;28;20040;-77
2022/06/09 07:12:34;;;;;;;11.05;3.42;;;;;;;;;;5083309;28;20050;-78
2022/06/09 07:15:01;;;;;;;7.38;2.88;;;;;;;;;;5062734;28;20091;-78
2022/06/09 07:17:27;;;;;;;6.82;3.22;;;;;;;;;;5084878;28;20052;-77
2022/06/09 07:19:53;;;;;;;5.28;2.78;;;;;;;;;;5083269;28;20036;-77
2022/06/09 07:22:19;;;;;;;8.60;2.88;;;;;;;;;;5068169;28;20040;-77
2022/06/09 07:24:45;;;;;;;6.93;2.60;;;;;;;;;;5083201;28;20036;-77
2022/06/09 07:27:12;;;;;;;8.20;2.58;;;;;;;;;;5084137;28;20510;-77
2022/06/09 07:29:38;;;;;;;6.53;2.63;;;;;;;;;;5069595;28;20052;-77
2022/06/09 07:32:05;;;;;;;6.35;2.60;;;;;;;;;;5074515;28;20070;-77
2022/06/09 07:34:31;;;;;;;8.25;2.58;;;;;;;;;;5066970;28;20046;-77
2022/06/09 07:36:57;;;;;;;7.45;2.70;;;;;;;;;;5086015;28;20126;-78
2022/06/09 07:39:24;;;;;;;9.00;2.97;;;;;;;;;;5084622;28;20366;-77
2022/06/09 07:41:50;;;;;;;4.80;2.45;;;;;;;;;;5094149;28;20048;-77
2022/06/09 07:44:16;;;;;;;6.82;2.58;;;;;;;;;;5080960;28;20494;-77
2022/06/09 07:46:43;;;;;;;9.65;2.95;;;;;;;;;;5092232;28;20076;-77
2022/06/09 07:49:09;;;;;;;6.18;2.70;;;;;;;;;;5072334;28;20048;-77
2022/06/09 07:51:35;;;;;;;9.90;3.10;;;;;;;;;;5092687;28;20043;-77
2022/06/09 07:54:02;;;;;;;9.93;2.90;;;;;;;;;;5061980;28;20051;-77
2022/06/09 07:56:28;;;;;;;8.75;3.10;;;;;;;;;;5064015;28;20173;-76
2022/06/09 07:58:54;;;;;;;6.15;2.83;;;;;;;;;;5094107;28;20052;-77
2022/06/09 08:01:22;;;;;;;6.57;2.50;;;;;;;;;;5061934;28;20044;-78
2022/06/09 08:03:48;;;;;;;6.10;3.08;;;;;;;;;;5066402;28;20058;-77
2022/06/09 08:06:15;;;;;;;7.05;2.70;;;;;;;;;;5064933;28;20052;-78
2022/06/09 08:08:41;;;;;;;6.15;2.95;;;;;;;;;;5086404;28;20073;-77
2022/06/09 08:11:08;;;;;;;9.98;2.92;;;;;;;;;;5092166;28;20084;-77
2022/06/09 08:13:35;;;;;;;9.35;2.90;;;;;;;;;;5093157;28;20130;-77
2022/06/09 08:16:02;;;;;;;9.27;2.80;;;;;;;;;;5070079;28;20044;-77
2022/06/09 08:18:28;;;;;;;8.18;2.80;;;;;;;;;;5089681;28;20079;-77
2022/06/09 08:20:55;;;;;;;7.47;2.60;;;;;;;;;;5091867;28;20043;-78
2022/06/09 08:23:22;;;;;;;7.28;2.92;;;;;;;;;;5092664;28;20044;-77
2022/06/09 08:25:49;;;;;;;7.30;2.67;;;;;;;;;;5069731;28;20127;-77
2022/06/09 08:28:20;;;;;;;8.75;2.85;;;;;;;;;;5084879;28;20040;-77
2022/06/09 08:30:48;;;;;;;6.10;2.72;;;;;;;;;;5059971;28;20055;-77
2022/06/09 08:33:14;;;;;;;8.60;2.92;;;;;;;;;;5073782;28;20037;-78
2022/06/09 08:35:40;;;;;;;6.85;2.97;;;;;;;;;;5092437;28;20444;-77
2022/06/09 08:38:07;;;;;;;7.72;3.03;;;;;;;;;;5088190;28;20050;-77
2022/06/09 08:40:49;;;;;;;6.38;2.60;;;;;;;;;;5091571;28;20047;-77
2022/06/09 08:43:25;;;;;;;8.07;3.00;;;;;;;;;;5092556;28;20070;-78
2022/06/09 08:45:54;;;;;;;7.45;2.95;;;;;;;;;;5058506;28;20399;-77
2022/06/09 08:48:22;;;;;;;8.32;2.92;;;;;;;;;;5082784;28;20047;-77
2022/06/09 08:51:06;;;;;;;8.55;3.45;;;;;;;;;;5070099;28;20040;-77
2022/06/09 08:53:38;;;;;;;8.02;2.80;;;;;;;;;;5087958;28;20048;-77
2022/06/09 08:56:08;;;;;;;8.10;3.40;;;;;;;;;;5072286;28;20039;-77
2022/06/09 08:58:34;;;;;;;9.70;2.70;;;;;;;;;;5086864;28;20106;-78
2022/06/09 09:01:04;;;;;;;6.75;2.75;;;;;;;;;;5055542;28;20422;-77
2022/06/09 09:03:54;;;;;;;5.63;2.65;;;;;;;;;;5066284;28;20078;-78
2022/06/09 09:06:23;;;;;;;6.60;2.92;;;;;;;;;;5060159;28;20048;-77
2022/06/09 09:08:49;;;;;;;6.95;3.17;;;;;;;;;;5061377;28;20442;-77
2022/06/09 09:11:15;;;;;;;8.52;2.92;;;;;;;;;;5061903;28;20504;-77
2022/06/09 09:13:54;;;;;;;8.85;3.00;;;;;;;;;;5089011;28;20036;-77
2022/06/09 09:16:20;;;;;;;9.77;2.95;;;;;;;;;;5081537;28;20483;-77
2022/06/09 09:18:53;;;;;;;6.97;2.90;;;;;;;;;;5081544;28;20088;-77
2022/06/09 09:21:28;;;;;;;9.32;3.50;;;;;;;;;;5074739;28;20043;-77
2022/06/09 09:24:12;;;;;;;9.48;3.10;;;;;;;;;;5070164;28;20048;-77
2022/06/09 09:26:59;;;;;;;9.10;3.42;;;;;;;;;;5064070;28;20052;-77
2022/06/09 09:29:35;;;;;;;10.80;3.38;;;;;;;;;;5066703;28;20059;-77
2022/06/09 09:32:06;;;;;;;6.20;3.00;;;;;;;;;;5081281;28;20048;-77
2022/06/09 09:34:34;;;;;;;8.55;2.95;;;;;;;;;;5090248;28;20458;-77
2022/06/09 09:37:21;;;;;;;10.77;3.58;;;;;;;;;;5063746;28;20825;-78
2022/06/09 09:39:50;;;;;;;9.95;3.03;;;;;;;;;;5059370;28;20138;-78
2022/06/09 09:42:22;;;;;;;8.43;3.10;;;;;;;;;;5068620;28;20056;-77
2022/06/09 09:44:59;;;;;;;7.22;3.22;;;;;;;;;;5053575;28;20052;-77
2022/06/09 09:47:26;;;;;;;7.97;3.10;;;;;;;;;;5078578;28;20100;-78
2022/06/09 09:49:55;;;;;;;6.97;2.97;;;;;;;;;;5075957;28;20036;-77
2022/06/09 09:52:37;;;;;;;8.13;3.13;;;;;;;;;;5080065;28;20052;-77
2022/06/09 09:55:03;;;;;;;7.78;3.38;;;;;;;;;;5074243;28;20075;-77
2022/06/09 09:57:29;;;;;;;7.03;2.70;;;;;;;;;;5084334;28;20051;-78
2022/06/09 09:59:57;;;;;;;7.38;3.05;;;;;;;;;;5092066;28;20043;-77
2022/06/09 10:10:56;;;;;;;10.32;3.38;;;;;;;;;;5069598;28;20048;-77
2022/06/09 10:13:30;;;;;;;7.18;3.15;;;;;;;;;;5073605;28;20119;-77
2022/06/09 10:15:56;;;;;;;8.07;3.15;;;;;;;;;;5081079;28;20067;-78
2022/06/09 10:18:23;;;;;;;8.05;2.83;;;;;;;;;;5070392;28;20049;-81
2022/06/09 10:20:49;;;;;;;5.43;3.00;;;;;;;;;;5080863;28;20048;-78
2022/06/09 10:23:23;;;;;;;5.10;3.00;;;;;;;;;;5070427;28;20044;-78
2022/06/09 10:26:02;;;;;;;7.72;3.10;;;;;;;;;;5073067;28;20044;-78
2022/06/09 10:28:39;;;;;;;8.30;3.20;;;;;;;;;;5070479;28;20040;-78
2022/06/09 10:31:06;;;;;;;7.68;2.75;;;;;;;;;;5060979;28;20418;-78
2022/06/09 10:33:34;;;;;;;10.50;3.42;;;;;;;;;;5091372;28;20040;-78
2022/06/09 10:36:03;;;;;;;8.45;2.90;;;;;;;;;;5081021;28;20101;-78
2022/06/09 10:38:36;;;;;;;6.80;3.20;;;;;;;;;;5067157;28;20541;-78
2022/06/09 10:41:02;;;;;;;;;;;;;;;;;;5070063;28;20040;-78
2022/06/09 10:43:32;;;;;;;7.53;3.30;;;;;;;;;;5090945;28;19916;-78
2022/06/09 10:46:06;;;;;;;7.03;3.10;;;;;;;;;;5090459;28;20040;-78
2022/06/09 10:57:06;;;;;;;7.55;3.20;;;;;;;;;;5071297;28;20052;-78
2022/06/09 10:59:45;;;;;;;7.70;3.38;;;;;;;;;;5061982;28;20048;-78
2022/06/09 11:02:14;;;;;;;7.82;3.45;;;;;;;;;;5077603;28;20052;-78
2022/06/09 11:04:40;;;;;;;8.25;3.28;;;;;;;;;;5059364;28;20071;-78
2022/06/09 11:07:18;;;;;;;7.78;3.28;;;;;;;;;;5087320;28;20040;-79
2022/06/09 11:09:54;;;;;;;5.70;3.00;;;;;;;;;;5055397;28;20040;-78
2022/06/09 11:12:29;;;;;;;10.30;3.40;;;;;;;;;;5065734;28;20102;-79
2022/06/09 11:14:55;;;;;;;6.03;3.00;;;;;;;;;;5070768;28;20165;-78
2022/06/09 11:17:37;;;;;;;9.27;2.95;;;;;;;;;;5063834;28;20127;-77
2022/06/09 11:20:11;;;;;;;9.50;3.40;;;;;;;;;;5076147;28;20123;-78
2022/06/09 11:22:43;;;;;;;6.53;3.10;;;;;;;;;;5066139;28;20216;-79
2022/06/09 11:25:25;;;;;;;7.25;3.55;;;;;;;;;;5090034;28;20052;-78
2022/06/09 11:28:10;;;;;;;10.43;3.47;;;;;;;;;;5083974;28;20099;-78
2022/06/09 11:30:36;;;;;;;6.78;3.55;;;;;;;;;;5073169;28;20070;-78
2022/06/09 11:33:02;;;;;;;6.40;3.33;;;;;;;;;;5092215;28;20050;-78
2022/06/09 11:35:41;;;;;;;8.20;3.10;;;;;;;;;;5087664;28;20043;-78
2022/06/09 11:38:16;;;;;;;6.57;3.50;;;;;;;;;;5075461;28;20486;-78
2022/06/09 11:40:46;;;;;;;6.93;3.08;;;;;;;;;;5073403;28;20032;-78
2022/06/09 11:43:44;;;;;;;6.32;3.42;;;;;;;;;;5073563;28;20443;-79
2022/06/09 11:46:23;;;;;;;8.27;3.28;;;;;;;;;;5032338;28;20585;-78
2022/06/09 11:48:50;;;;;;;9.75;3.50;;;;;;;;;;5076336;28;20045;-78
2022/06/09 11:51:18;;;;;;;9.50;3.63;;;;;;;;;;5086830;28;20048;-78
2022/06/09 11:53:49;;;;;;;8.50;3.15;;;;;;;;;;5076510;28;20040;-77
2022/06/09 11:56:33;;;;;;;9.23;3.40;;;;;;;;;;5087646;28;20052;-77
2022/06/09 11:59:00;;;;;;;9.43;3.15;;;;;;;;;;5087663;28;20097;-73
2022/06/09 12:01:32;;;;;;;7.60;3.33;;;;;;;;;;5064246;28;20460;-77
2022/06/09 12:04:17;;;;;;;7.93;3.47;;;;;;;;;;5073058;28;20043;-77
2022/06/09 12:06:52;;;;;;;6.40;3.13;;;;;;;;;;5072235;28;20055;-78
2022/06/09 12:09:30;;;;;;;8.40;2.92;;;;;;;;;;5068374;28;20403;-76
2022/06/09 12:12:19;;;;;;;8.10;3.85;;;;;;;;;;5082849;28;20398;-77
2022/06/09 12:14:45;;;;;;;7.13;3.42;;;;;;;;;;5052039;28;20618;-77
2022/06/09 12:17:19;;;;;;;10.13;3.78;;;;;;;;;;5089727;28;20040;-77
2022/06/09 12:20:09;;;;;;;10.82;3.40;;;;;;;;;;5064021;28;20514;-78
2022/06/09 12:22:41;;;;;;;8.45;3.67;;;;;;;;;;5070304;28;20063;-78
2022/06/09 12:25:10;;;;;;;7.50;3.20;;;;;;;;;;5091410;28;20051;-79
2022/06/09 12:27:42;;;;;;;7.68;3.33;;;;;;;;;;5093158;28;20082;-78
2022/06/09 12:30:27;;;;;;;10.35;3.80;;;;;;;;;;5072947;28;20052;-78
2022/06/09 12:32:53;;;;;;;8.93;3.45;;;;;;;;;;5080201;28;20437;-78
2022/06/09 12:35:31;;;;;;;7.85;3.53;;;;;;;;;;5092545;28;20051;-78
2022/06/09 12:38:00;;;;;;;7.30;2.92;;;;;;;;;;5091988;28;20036;-79
2022/06/09 12:40:32;;;;;;;8.75;3.22;;;;;;;;;;5071763;28;20085;-79
2022/06/09 12:43:01;;;;;;;8.85;3.75;;;;;;;;;;5090173;28;20044;-78
2022/06/09 12:45:35;;;;;;;9.18;3.40;;;;;;;;;;5090929;28;20072;-78
2022/06/09 12:48:04;;;;;;;9.82;3.28;;;;;;;;;;5091296;28;20051;-78
2022/06/09 12:50:30;;;;;;;8.80;3.08;;;;;;;;;;5076421;28;20035;-79
2022/06/09 12:52:57;;;;;;;8.27;3.35;;;;;;;;;;5086586;28;20044;-78
2022/06/09 12:55:26;;;;;;;9.07;3.88;;;;;;;;;;5082598;28;20068;-78
2022/06/09 12:57:55;;;;;;;10.70;3.92;;;;;;;;;;5071262;28;20068;-78
2022/06/09 13:00:25;;;;;;;11.35;4.50;;;;;;;;;;5069100;28;20502;-79
2022/06/09 13:02:51;;;;;;;13.52;4.25;;;;;;;;;;5061367;28;20059;-78
2022/06/09 13:05:27;;;;;;;10.95;3.72;;;;;;;;;;5055487;28;20052;-78
2022/06/09 13:08:16;;;;;;;12.20;4.25;;;;;;;;;;5080097;28;20171;-79
2022/06/09 13:10:44;;;;;;;11.73;4.20;;;;;;;;;;5066636;28;20063;-78
2022/06/09 13:13:21;;;;;;;12.93;4.40;;;;;;;;;;5092043;28;20119;-78
2022/06/09 13:16:05;;;;;;;10.38;3.85;;;;;;;;;;5076421;28;20371;-78
2022/06/09 13:18:31;;;;;;;12.65;4.25;;;;;;;;;;5089768;28;20398;-79
2022/06/09 13:20:57;;;;;;;10.45;3.70;;;;;;;;;;5090135;28;20031;-79
2022/06/09 13:23:24;;;;;;;10.73;4.18;;;;;;;;;;5074304;28;20052;-78
2022/06/09 13:25:50;;;;;;;12.70;4.30;;;;;;;;;;5080172;28;20055;-79
2022/06/09 13:28:22;;;;;;;11.27;4.47;;;;;;;;;;5091745;28;20517;-78
2022/06/09 13:30:50;;;;;;;10.98;3.90;;;;;;;;;;5074115;28;20075;-78
2022/06/09 13:33:24;;;;;;;11.55;3.83;;;;;;;;;;5090875;28;20044;-78
2022/06/09 13:35:52;;;;;;;11.20;3.80;;;;;;;;;;5072884;28;20108;-79
2022/06/09 13:38:20;;;;;;;11.35;3.75;;;;;;;;;;5081085;28;20044;-79
2022/06/09 13:40:48;;;;;;;13.32;4.00;;;;;;;;;;5088767;28;20425;-79
2022/06/09 13:43:17;;;;;;;10.27;3.75;;;;;;;;;;5092516;28;20127;-79
2022/06/09 13:45:49;;;;;;;15.68;4.38;;;;;;;;;;5072694;28;20121;-78
2022/06/09 13:48:20;;;;;;;10.25;4.15;;;;;;;;;;5091407;28;20617;-79
2022/06/09 13:50:49;;;;;;;11.75;4.07;;;;;;;;;;5086663;28;20510;-79
2022/06/09 13:53:35;;;;;;;12.23;4.15;;;;;;;;;;5078920;28;20122;-79
2022/06/09 13:56:04;;;;;;;12.38;4.18;;;;;;;;;;5071927;28;20052;-79
2022/06/09 13:58:31;;;;;;;11.13;4.05;;;;;;;;;;5091375;28;20499;-79
2022/06/09 14:01:00;;;;;;;13.70;3.67;;;;;;;;;;5076456;28;20039;-78
2022/06/09 14:03:34;;;;;;;10.40;3.78;;;;;;;;;;5089969;28;20407;-79
2022/06/09 14:06:02;;;;;;;10.80;4.05;;;;;;;;;;5069421;28;20052;-79
2022/06/09 14:08:29;;;;;;;10.75;3.97;;;;;;;;;;5080008;28;20395;-79
2022/06/09 14:10:55;;;;;;;10.13;3.80;;;;;;;;;;5081983;28;20040;-79
2022/06/09 14:13:21;;;;;;;12.35;3.83;;;;;;;;;;5084408;28;20044;-79
2022/06/09 14:15:49;;;;;;;8.77;3.45;;;;;;;;;;5070462;28;20391;-78
2022/06/09 14:18:17;;;;;;;11.25;3.45;;;;;;;;;;5084625;28;20055;-79
2022/06/09 14:20:43;;;;;;;8.30;3.60;;;;;;;;;;5088369;28;20043;-79
2022/06/09 14:23:16;;;;;;;6.38;3.53;;;;;;;;;;5081277;28;20044;-79
2022/06/09 14:25:42;;;;;;;11.85;3.92;;;;;;;;;;5069739;28;20090;-79
2022/06/09 14:28:11;;;;;;;11.02;4.03;;;;;;;;;;5078329;28;20044;-78
2022/06/09 14:30:37;;;;;;;11.77;3.50;;;;;;;;;;5085806;28;20087;-79
2022/06/09 14:33:05;;;;;;;7.90;3.38;;;;;;;;;;5087075;28;20051;-79
2022/06/09 14:35:32;;;;;;;10.13;3.30;;;;;;;;;;5084658;28;20059;-79
2022/06/09 14:37:58;;;;;;;7.30;3.25;;;;;;;;;;5070898;28;20059;-79
2022/06/09 14:40:28;;;;;;;8.30;3.17;;;;;;;;;;5081364;28;20041;-79
2022/06/09 14:42:55;;;;;;;7.68;3.17;;;;;;;;;;5086447;28;20511;-79
2022/06/09 14:45:21;;;;;;;8.05;3.35;;;;;;;;;;5081967;28;20044;-80
2022/06/09 14:47:48;;;;;;;9.75;3.28;;;;;;;;;;5067565;28;20542;-80
2022/06/09 14:50:16;;;;;;;6.95;2.80;;;;;;;;;;5083262;28;20043;-80
2022/06/09 14:52:42;;;;;;;9.45;2.90;;;;;;;;;;5087353;28;20087;-80
2022/06/09 14:55:09;;;;;;;6.97;2.80;;;;;;;;;;5091831;28;20067;-80
2022/06/09 14:57:35;;;;;;;9.23;3.15;;;;;;;;;;5087228;28;20071;-77
2022/06/09 15:00:01;;;;;;;6.78;3.20;;;;;;;;;;5081576;28;20044;-78
2022/06/09 15:02:28;;;;;;;7.35;2.85;;;;;;;;;;5078955;28;20078;-78
2022/06/09 15:04:54;;;;;;;7.40;3.00;;;;;;;;;;5088764;28;20048;-78
2022/06/09 15:07:21;;;;;;;7.88;3.00;;;;;;;;;;5087220;28;20084;-78
2022/06/09 15:09:47;;;;;;;8.85;3.42;;;;;;;;;;5090625;28;20059;-74
2022/06/09 15:12:14;;;;;;;7.55;2.78;;;;;;;;;;5069223;28;20052;-78
2022/06/09 15:14:40;;;;;;;7.97;2.80;;;;;;;;;;5088398;28;20051;-77
2022/06/09 15:17:06;;;;;;;6.20;2.83;;;;;;;;;;5076800;28;20044;-77